Latest Coastal Weather Observations for St Lawrence

IDQ60701

Issued at 10:22 pm EST Monday 26 January 2015 (issued every 10 minutes, with the page automatically refreshed every 10 minutes)

About coastal observations | Map of coastal stations | Coastal observations for QLD | Marine services | Other Formats
Station Details ID: 033210 Name: ST LAWRENCE Lat: -22.35 Lon: 149.52 Height: 9.19 m
Data from the previous 72 hours. | See also: Recent months at St Lawrence
Date/Time
EST
Temp

°C
Wind Pressure Rain
since 9am
mm
Weather Cloud Vis
km
Sea
Height
m
Swell
Dir
 
Speed
knots
Gust
knots
hPa Trend Height
m
Period
s
Dir
26/10:00pm 28.6 CALM 0 0 1004.6 - 0.0 - - - - - - -
26/09:30pm 28.8 NNE 4 5 1003.8 - 0.0 - - - - - - -
26/09:00pm 29.0 NNE 5 6 1003.6 - 0.0 - - - - - - -
26/08:30pm 29.2 NNE 5 7 1003.8 - 0.0 - - - - - - -
26/08:00pm 29.3 ENE 5 7 1003.6 - 0.0 - - - - - - -
26/07:30pm 29.6 ENE 3 5 1003.4 - 0.0 - - - - - - -
26/07:00pm 30.3 NNE 5 7 1003.1 - 0.0 - - - - - - -
26/06:30pm 30.5 NNE 8 11 1002.8 - 0.0 - - - - - - -
26/06:00pm 30.9 NNE 10 14 1002.4 - 0.0 - - - - - - -
26/05:30pm 31.4 NE 10 13 1002.5 - 0.0 - - - - - - -
26/05:00pm 31.4 NE 11 17 1002.0 - 0.0 - - - - - - -
26/04:30pm 32.7 NNE 10 12 1001.7 - 0.0 - - - - - - -
26/04:00pm 33.3 N 10 13 1001.6 - 0.0 - - - - - - -
26/03:30pm 34.2 NNE 12 15 1001.5 - 0.0 - - - - - - -
26/03:00pm 36.3 W 4 8 1001.7 - 0.0 - - - - - - -
26/02:30pm 35.8 ESE 5 7 1002.3 - 0.0 - - - - - - -
26/02:00pm 35.9 SSW 4 7 1002.4 - 0.0 - - - - - - -
26/01:30pm 34.9 S 5 9 1002.5 - 0.0 - - - - - - -
26/01:00pm 34.6 S 6 8 1002.8 - 0.0 - - - - - - -
26/12:30pm 34.3 S 3 7 1003.2 - 0.0 - - - - - - -
26/12:00pm 33.3 SSW 6 10 1003.7 - 0.0 - - - - - - -
26/11:30am 33.5 SSW 5 9 1003.9 - 0.0 - - - - - - -
26/11:00am 33.0 SSW 5 9 1004.3 - 0.0 - - - - - - -
26/10:30am 32.5 S 6 10 1004.6 - 0.0 - - - - - - -
26/10:00am 31.7 SSE 6 10 1004.8 - 0.0 - - - - - - -
26/09:30am 30.8 SSE 6 9 1005.0 - 0.0 - - - - - - -
26/09:00am 30.3 S 5 7 1005.2 - 0.0 - - - - - - -
26/08:30am 29.2 SW 4 6 1005.5 - 0.0 - - - - - - -
26/08:00am 28.2 WSW 6 9 1005.5 - 0.0 - - - - - - -
26/07:30am 27.4 WSW 5 6 1005.7 - 0.0 - - - - - - -
26/07:00am 26.8 W 4 6 1005.9 - 0.0 - - - - - - -
26/06:30am 26.2 CALM 0 0 1005.5 - 0.0 - - - - - - -
26/06:00am 25.8 SSW 3 4 1005.6 - 0.0 - - - - - - -
26/05:30am 25.9 WSW 5 8 1005.1 - 0.0 - - - - - - -
26/05:00am 25.9 WSW 7 10 1004.9 - 0.0 - - - - - - -
26/04:30am 25.4 WSW 3 5 1004.3 - 0.0 - - - - - - -
26/04:00am 25.6 WSW 3 4 1004.1 - 0.0 - - - - - - -
26/03:30am 26.1 WSW 4 6 1004.2 - 0.0 - - - - - - -
26/03:00am 26.6 SE 5 8 1004.2 - 0.0 - - - - - - -
26/02:30am 26.7 S 7 10 1004.6 - 0.0 - - - - - - -
26/02:00am 27.5 SE 4 6 1004.3 - 0.0 - - - - - - -
26/01:30am 27.2 NE 5 6 1003.6 - 0.0 - - - - - - -
26/01:00am 27.3 NNE 4 5 1003.3 - 0.0 - - - - - - -
26/12:30am 27.5 NNE 5 7 1003.7 - 0.0 - - - - - - -
26/12:00am 27.3 NNW 2 5 1004.3 - 0.0 - - - - - - -
 
Date/Time
EST
Temp

°C
Wind Pressure Rain
since 9am
mm
Weather Cloud Vis
km
Sea
Height
m
Swell
Dir
 
Speed
knots
Gust
knots
hPa Trend Height
m
Period
s
Dir
25/11:30pm 27.4 W 6 11 1005.2 - 0.0 - - - - - - -
25/11:00pm 28.8 SW 9 17 1006.3 - 0.0 - - - - - - -
25/10:30pm 29.3 S 11 16 1006.9 - 0.0 - - - - - - -
25/10:00pm 28.8 CALM 0 4 1006.1 - 0.0 - - - - - - -
25/09:30pm 29.2 CALM 0 0 1006.0 - 0.0 - - - - - - -
25/09:00pm 29.5 ENE 2 5 1005.5 - 0.0 - - - - - - -
25/08:30pm 29.6 W 2 4 1004.9 - 0.0 - - - - - - -
25/08:00pm 29.6 N 3 5 1003.7 - 0.0 - - - - - - -
25/07:30pm 29.8 NNE 5 7 1003.5 - 0.0 - - - - - - -
25/07:00pm 30.2 N 5 6 1004.4 - 0.0 - - - - - - -
25/06:30pm 30.6 N 7 10 1004.0 - 0.0 - - - - - - -
25/06:00pm 30.9 N 7 11 1003.3 - 0.0 - - - - - - -
25/05:30pm 31.4 N 7 11 1003.0 - 0.0 - - - - - - -
25/05:00pm 31.9 N 10 15 1002.7 - 0.0 - - - - - - -
25/04:30pm 31.9 NNE 11 15 1002.5 - 0.0 - - - - - - -
25/04:00pm 32.3 NE 10 15 1002.5 - 0.0 - - - - - - -
25/03:30pm 33.5 NE 9 11 1002.4 - 0.0 - - - - - - -
25/03:00pm 32.8 NE 8 10 1002.8 - 0.0 - - - - - - -
25/02:30pm 32.4 NE 10 13 1003.4 - 0.0 - - - - - - -
25/02:00pm 35.3 SW 5 9 1003.7 - 0.0 - - - - - - -
25/01:30pm 36.4 SSW 5 11 1004.0 - 0.0 - - - - - - -
25/01:00pm 35.8 S 5 9 1004.2 - 0.0 - - - - - - -
25/12:30pm 35.4 SW 7 11 1004.5 - 0.0 - - - - - - -
25/12:00pm 34.7 W 7 11 1004.9 - 0.0 - - - - - - -
25/11:30am 34.6 W 8 12 1005.5 - 0.0 - - - - - - -
25/11:00am 34.1 WSW 8 12 1005.9 - 0.0 - - - - - - -
25/10:30am 33.8 WSW 10 17 1006.3 - 0.0 - - - - - - -
25/10:00am 33.7 W 9 15 1006.7 - 0.0 - - - - - - -
25/09:30am 32.9 W 10 14 1007.1 - 0.0 - - - - - - -
25/09:00am 32.3 WNW 8 11 1007.3 - 0.0 - - - - - - -
25/08:30am 30.6 WNW 5 8 1007.2 - 0.0 - - - - - - -
25/08:00am 29.2 CALM 0 0 1007.2 - 0.0 - - - - - - -
25/07:30am 27.8 S 2 4 1007.3 - 0.0 - - - - - - -
25/07:00am 26.9 W 1 4 1007.1 - 0.0 - - - - - - -
25/06:30am 26.4 CALM 0 0 1006.6 - 0.0 - - - - - - -
25/06:00am 25.8 CALM 0 3 1006.4 - 0.0 - - - - - - -
25/05:30am 25.3 CALM 0 0 1005.8 - 0.0 - - - - - - -
25/05:00am 25.3 CALM 0 0 1005.5 - 0.0 - - - - - - -
25/04:30am 25.4 SSE 4 6 1005.2 - 0.0 - - - - - - -
25/04:00am 25.7 S 6 8 1005.1 - 0.0 - - - - - - -
25/03:30am 26.2 S 5 7 1004.8 - 0.0 - - - - - - -
25/03:00am 26.2 S 5 6 1004.6 - 0.0 - - - - - - -
25/02:30am 26.6 E 3 4 1004.6 - 0.0 - - - - - - -
25/02:00am 26.7 NE 4 5 1004.8 - 0.0 - - - - - - -
25/01:30am 26.5 E 3 4 1005.0 - 0.0 - - - - - - -
25/01:00am 26.9 SW 3 4 1005.1 - 0.0 - - - - - - -
25/12:30am 27.0 WSW 3 4 1005.3 - 0.0 - - - - - - -
25/12:00am 27.4 W 5 7 1005.6 - 0.0 - - - - - - -
 
Date/Time
EST
Temp

°C
Wind Pressure Rain
since 9am
mm
Weather Cloud Vis
km
Sea
Height
m
Swell
Dir
 
Speed
knots
Gust
knots
hPa Trend Height
m
Period
s
Dir
24/11:30pm 28.1 ENE 1 3 1005.9 - 0.0 - - - - - - -
24/11:00pm 28.3 ESE 3 4 1006.2 - 0.0 - - - - - - -
24/10:30pm 28.4 SE 4 6 1006.3 - 0.0 - - - - - - -
24/10:00pm 28.3 SSE 4 5 1005.8 - 0.0 - - - - - - -
24/09:30pm 28.5 NE 1 3 1005.7 - 0.0 - - - - - - -
24/09:00pm 28.6 CALM 0 1 1005.5 - 0.0 - - - - - - -
24/08:30pm 28.9 NNE 4 8 1005.2 - 0.0 - - - - - - -
24/08:00pm 28.9 NE 5 6 1005.1 - 0.0 - - - - - - -
24/07:30pm 29.1 NNE 5 7 1004.7 - 0.0 - - - - - - -
24/07:00pm 29.3 NNE 7 10 1004.4 - 0.0 - - - - - - -
24/06:30pm 29.6 NNE 10 13 1004.0 - 0.0 - - - - - - -
24/06:00pm 30.3 NNE 9 13 1003.8 - 0.0 - - - - - - -
24/05:30pm 31.4 NNE 11 15 1003.4 - 0.0 - - - - - - -
24/05:00pm 32.1 NNE 11 15 1003.2 - 0.0 - - - - - - -
24/04:30pm 32.0 NNE 13 17 1003.0 - 0.0 - - - - - - -
24/04:00pm 32.3 NNE 12 17 1003.1 - 0.0 - - - - - - -
24/03:30pm 32.4 NNE 11 15 1003.2 - 0.0 - - - - - - -
24/03:00pm 32.3 NE 11 14 1003.2 - 0.0 - - - - - - -
24/02:30pm 32.2 NNE 11 16 1003.4 - 0.0 - - - - - - -
24/02:00pm 33.2 NNE 9 11 1003.5 - 0.0 - - - - - - -
24/01:30pm 32.4 NNE 8 11 1004.0 - 0.0 - - - - - - -
24/01:00pm 32.6 NE 7 9 1004.0 - 0.0 - - - - - - -
24/12:30pm 31.5 NE 8 10 1004.2 - 0.0 - - - - - - -
24/12:00pm 31.4 NE 9 11 1004.7 - 0.0 - - - - - - -
24/11:30am 31.5 NE 7 11 1004.9 - 0.0 - - - - - - -
24/11:00am 31.3 NE 9 12 1005.4 - 0.0 - - - - - - -
24/10:30am 33.0 N 4 5 1005.6 - 0.0 - - - - - - -
24/10:00am 32.3 WNW 4 8 1005.8 - 0.0 - - - - - - -
24/09:30am 31.7 WNW 6 9 1006.0 - 0.0 - - - - - - -
24/09:00am 30.7 WNW 6 9 1006.2 - 0.0 - - - - - - -
24/08:30am 28.8 WNW 2 5 1005.9 - 0.0 - - - - - - -
24/08:00am 27.6 N 1 3 1005.8 - 0.0 - - - - - - -
24/07:30am 26.5 CALM 0 0 1005.7 - 0.0 - - - - - - -
24/07:00am 25.1 CALM 0 0 1005.6 - 0.0 - - - - - - -
24/06:30am 24.4 CALM 0 0 1005.2 - 0.0 - - - - - - -
24/06:00am 23.8 CALM 0 0 1005.0 - 0.0 - - - - - - -
24/05:30am 23.7 CALM 0 0 1004.7 - 0.0 - - - - - - -
24/05:00am 23.9 CALM 0 0 1004.4 - 0.0 - - - - - - -
24/04:30am 23.8 SW 2 3 1004.3 - 0.0 - - - - - - -
24/04:00am 23.6 S 3 4 1004.0 - 0.0 - - - - - - -
24/03:30am 24.0 CALM 0 0 1003.9 - 0.0 - - - - - - -
24/03:00am 23.8 CALM 0 3 1003.9 - 0.0 - - - - - - -
24/02:30am 24.0 S 1 4 1003.8 - 0.0 - - - - - - -
24/02:00am 24.0 CALM 0 0 1003.8 - 0.0 - - - - - - -
24/01:30am 24.2 SSE 2 4 1003.7 - 0.0 - - - - - - -
24/01:00am 24.5 CALM 0 0 1003.8 - 0.0 - - - - - - -
24/12:30am 24.7 CALM 0 0 1004.1 - 0.0 - - - - - - -
24/12:00am 25.2 N 1 3 1004.5 - 0.0 - - - - - - -
 
Date/Time
EST
Temp

°C
Wind Pressure Rain
since 9am
mm
Weather Cloud Vis
km
Sea
Height
m
Swell
Dir
 
Speed
knots
Gust
knots
hPa Trend Height
m
Period
s
Dir
23/11:30pm 25.4 N 5 6 1004.5 - 0.0 - - - - - - -
23/11:00pm 25.7 NNE 4 4 1004.8 - 0.0 - - - - - - -
23/10:30pm 25.9 NE 5 7 1004.9 - 0.0 - - - - - - -

Other Formats:

Comma delimited format used in spreadsheet applications
http://www.bom.gov.au/fwo/IDQ60701/IDQ60701.95369.axf

JavaScript Object Notation format (JSON) in row-major order
http://www.bom.gov.au/fwo/IDQ60701/IDQ60701.95369.json